KLSE/LSE METAR and TAF weather

Enter ICAO airport designator
Station Type Date Time Source
KLSE METAR 2021/09/20 04:53 UTC NOAA

KLSE 200453Z AUTO 17006KT 10SM CLR 24/18 A2988 RMK AO2 SLP106 T02390183


Station Type Date Time Source
KLSE Decoded METAR 2021/09/20 04:53 UTC NOAA

LA CROSSE MUNICIPAL AIRPORT , WI, United States (KLSE) 43-53N 091-15W 200M
Sep 20, 2021 - 12:53 AM EDT / 2021.09.20 0453 UTC
Wind: from the S (170 degrees) at 7 MPH (6 KT):0
Visibility: 10 mile(s):0
Sky conditions: clear
Temperature: 75.0 F (23.9 C)
Dew Point: 64.9 F (18.3 C)
Relative Humidity: 70%
Pressure (altimeter): 29.88 in. Hg (1011 hPa)
ob: KLSE 200453Z AUTO 17006KT 10SM CLR 24/18 A2988 RMK AO2 SLP106 T02390183
cycle: 5

Station Type Date Time Source
KLSE TAF 2021/09/19 18:22 UTC NOAA

TAF KLSE 191720Z 1918/2018 18012G22KT P6SM SKC
FM192300 16009KT P6SM SCT250
FM201400 17011G20KT P6SM BKN025

Example: see airport list